KSKF

Kelly Field Airport

San Antonio, Texas, USA
METAR KSKF 110256Z AUTO 00000KT 10SM CLR 06/02 A3037 RMK AO2 SLP288 T00610022 52010
Observed Flight Rules
Dec-11 @ 02:56 UTC (33 minutes ago) Visual Flight Rules
Visibility Clouds
10 miles
  • Clear skies
Temperatures Readings
Current 6°C / 43°F
Dewpoint 2°C / 36°F
Humidity 76%
Altimeter 30.37" Hg
Pressure 1028.8 hPa
Elevation 210
METAR KSKF 110256Z AUTO 00000KT 10SM CLR 06/02 A3037 RMK AO2 SLP288 T00610022 52010
Observed Flight Rules
Dec-11 @ 02:56 UTC
(33 minutes ago)
VFR
Clouds
  • Clear skies
Temperature Dewpoint
6°C / 43°F 2°C / 36°F
Humidity Altimeter Pressure
76% 30.37" Hg 1028.8 hPa